Aérodrome :
LOGIN :

S'inscrire | Disclaimer

   EN    FR    IT 

 










Légende :    VFR   VFR Marginal   IFR   IFR Intensif   IFR Très Intensif
Visi : 
Plafond : 
>= 8 km
>= 3000ft
5 à 8 km
1000 à 3000 ft
1500m à 5 km
500 à 1000 ft
800 à 1500m
200 à 500 ft
< 800m
< 200 ft
Symboles :   Orages  Brouillard  Fortes neiges  Fortes précipitations  Vent > 20 kt
SIGMETs :   Divers  Orages  Givrage  Turbulence  Onde Orograph.  Cendres Volcan.






- Altitude de l'aérodrome : 863 ft
- Code IATA : ZAZ


LEZG - Zaragoza Aragon

DERNIER METAR :
  • 172230Z 25004KT 230V010 CAVOK 17/11 Q1017

METARs EXPIRÉS :
  • 172200Z VRB05KT CAVOK 18/11 Q1017
  • 172130Z 23015KT CAVOK 18/11 Q1017
  • 172100Z 23014KT 190V250 CAVOK 18/11 Q1017
  • 172030Z 22006KT 170V300 CAVOK 19/10 Q1017
  • 172000Z 23004KT 190V300 CAVOK 19/11 Q1016

TAF TAF LEZG
Valide du 17 à 18h jusqu'au 18 à 18h UTC


171700Z 1718/1818 24010KT 9999 FEW040 SCT060 TX26/1813Z TN15/1806Z
TEMPO 1720/1806 24015G25KT



MET'MAP, la Météo Aéronautique d'un coup d'oeil ! - Copyright ORBIFLY Décembre 2007 - Disclaimer

ORBIFLY MET'MAP TEAM :

Programmation & Développement : Alexandra Zaïnal
Conception & Développement : Baudouin d'Aumeries
Co-Programmation & Développement : Marc-Olivier Méhu
Soutien technique & logistique : Manuel Goepfert

Contact : metmap@orbifly.com




SOURCES & CREDITS :

   NOAA